In Rescue
 
Open Full Screen Window  High Contrast Mode
Wind Gusting 00 knots
05
March 19, 2019 4:20 PM PDT
Weather Information
Wind Direction
  150 °
Wind Speed
  05 kt (6 mph)
Wind Gust
  00 kt (0 mph)
Altimeter
29.84 in
Visibility
8 SM
Temperature
15° C
59° F
Dewpoint
07° C
45° F
Humidity
59%
1hr Rain Fall
00.00 in.
24hr Rain Fall
00.00 in.
Sky Condition
Clear
VFR

METAR KHAF 192320Z AUTO 15005KT 8SM CLR 15/07 A2984 RMK AO2

FAA Disclaimer: The data displayed is for advisory purposes only and is not to be used for flight planning or operations.